Time;durP1;ratioP1;P1;durP2;ratioP2;P2;SDS_P1;SDS_P2;PMS_P1;PMS_P2;Temp;Humidity;BMP_temperature;BMP_pressure;BME280_temperature;BME280_humidity;BME280_pressure;Samples;Min_cycle;Max_cycle;Signal;HPM_P1;HPM_P2
2022/09/06 00:00:38;;;;;;;5.63;4.38;;;20.80;91.30;;;;;;5058018;28;20048;-81
2022/09/06 00:03:05;;;;;;;5.93;5.13;;;20.80;91.40;;;;;;5075507;28;20106;-79
2022/09/06 00:05:31;;;;;;;7.22;4.10;;;20.70;91.40;;;;;;5057674;28;20334;-79
2022/09/06 00:08:01;;;;;;;8.38;5.32;;;20.70;91.50;;;;;;5041164;28;20051;-81
2022/09/06 00:10:28;;;;;;;6.57;3.83;;;20.70;91.70;;;;;;5075328;28;20033;-80
2022/09/06 00:12:54;;;;;;;5.85;4.38;;;20.60;91.80;;;;;;5076225;28;20348;-79
2022/09/06 00:15:21;;;;;;;10.00;5.15;;;20.60;92.00;;;;;;5075100;28;20111;-81
2022/09/06 00:17:47;;;;;;;8.65;4.50;;;20.50;92.10;;;;;;5039944;28;20403;-80
2022/09/06 00:20:14;;;;;;;5.07;4.35;;;20.50;92.20;;;;;;5074855;28;20466;-79
2022/09/06 00:22:39;;;;;;;7.32;4.20;;;20.50;92.30;;;;;;5075086;28;20048;-81
2022/09/06 00:25:06;;;;;;;5.95;4.03;;;20.40;92.40;;;;;;5075039;28;20071;-81
2022/09/06 00:27:33;;;;;;;9.82;4.38;;;20.40;92.50;;;;;;5041034;28;20072;-79
2022/09/06 00:29:59;;;;;;;6.38;4.45;;;20.40;92.50;;;;;;5057286;28;20045;-79
2022/09/06 00:32:25;;;;;;;8.77;4.13;;;20.30;92.60;;;;;;5040786;28;20045;-79
2022/09/06 00:34:51;;;;;;;5.75;4.20;;;20.30;92.80;;;;;;5057042;28;20040;-80
2022/09/06 00:37:17;;;;;;;6.85;4.60;;;20.30;92.80;;;;;;5057273;28;20032;-81
2022/09/06 00:39:42;;;;;;;5.70;4.18;;;20.20;92.70;;;;;;5074788;28;20111;-80
2022/09/06 00:42:10;;;;;;;5.05;4.47;;;20.20;92.70;;;;;;5040608;28;20058;-81
2022/09/06 00:44:36;;;;;;;4.80;4.22;;;20.30;92.70;;;;;;5056941;28;20474;-79
2022/09/06 00:47:04;;;;;;;6.38;4.90;;;20.30;92.80;;;;;;5074109;28;20110;-80
2022/09/06 00:49:52;;;;;;;7.68;4.88;;;20.20;92.90;;;;;;5056833;28;20048;-82
2022/09/06 00:52:19;;;;;;;5.57;4.55;;;20.20;92.90;;;;;;5057093;28;20083;-80
2022/09/06 00:54:47;;;;;;;6.40;4.43;;;20.20;92.90;;;;;;5057031;28;20453;-81
2022/09/06 00:57:14;;;;;;;6.82;4.47;;;20.20;92.90;;;;;;5074313;28;20041;-79
2022/09/06 00:59:41;;;;;;;5.28;4.28;;;20.20;92.90;;;;;;5056905;28;20135;-80
2022/09/06 01:02:08;;;;;;;6.70;4.57;;;20.20;93.00;;;;;;5074412;28;20136;-80
2022/09/06 01:04:37;;;;;;;7.47;5.28;;;20.20;93.10;;;;;;5074719;28;20103;-81
2022/09/06 01:07:28;;;;;;;8.80;4.87;;;20.10;93.20;;;;;;5074660;28;20335;-81
2022/09/06 01:10:13;;;;;;;5.38;4.75;;;20.20;93.30;;;;;;5056417;28;20337;-80
2022/09/06 01:13:02;;;;;;;7.38;4.60;;;20.10;93.40;;;;;;5074084;28;20362;-79
2022/09/06 01:15:52;;;;;;;5.07;4.43;;;20.10;93.50;;;;;;5039863;28;20135;-79
2022/09/06 01:18:39;;;;;;;8.15;4.60;;;20.10;93.50;;;;;;5073963;28;20067;-81
2022/09/06 01:21:15;;;;;;;8.43;4.75;;;20.00;93.50;;;;;;5073908;28;20432;-81
2022/09/06 01:24:00;;;;;;;8.23;5.20;;;20.00;93.40;;;;;;5056195;28;20464;-80
2022/09/06 01:26:34;;;;;;;6.70;4.45;;;20.00;93.30;;;;;;5056464;28;20105;-80
2022/09/06 01:29:04;;;;;;;7.85;4.70;;;20.00;93.20;;;;;;5073391;28;20036;-79
2022/09/06 01:31:43;;;;;;;6.50;5.00;;;20.00;93.20;;;;;;5073755;28;20055;-80
2022/09/06 01:34:33;;;;;;;8.75;4.93;;;20.00;93.10;;;;;;5056294;28;20135;-81
2022/09/06 01:37:04;;;;;;;8.93;5.07;;;20.00;93.10;;;;;;5045676;28;20056;-80
2022/09/06 01:39:33;;;;;;;5.93;5.22;;;20.00;93.30;;;;;;5073542;28;20036;-80
2022/09/06 01:42:21;;;;;;;6.50;4.85;;;20.00;93.50;;;;;;5073356;28;20137;-81
2022/09/06 01:45:04;;;;;;;7.65;5.75;;;19.90;93.60;;;;;;5072862;28;20040;-80
2022/09/06 01:47:44;;;;;;;6.93;6.10;;;19.90;93.70;;;;;;5038729;28;20048;-79
2022/09/06 01:50:39;;;;;;;7.95;6.30;;;19.90;93.90;;;;;;5072762;28;20044;-80
2022/09/06 01:53:23;;;;;;;12.25;7.00;;;19.80;94.20;;;;;;5071772;28;20052;-79
2022/09/06 01:55:57;;;;;;;7.53;6.00;;;19.80;94.50;;;;;;5073272;28;20131;-80
2022/09/06 01:58:41;;;;;;;7.22;5.85;;;19.70;94.60;;;;;;5055753;28;20489;-81
2022/09/06 02:01:45;;;;;;;7.20;5.53;;;19.70;94.90;;;;;;5055562;28;20135;-81
2022/09/06 02:04:25;;;;;;;6.03;5.53;;;19.60;95.00;;;;;;5055428;28;20040;-81
2022/09/06 02:07:02;;;;;;;8.00;6.25;;;19.60;95.20;;;;;;5055264;28;20394;-80
2022/09/06 02:09:34;;;;;;;6.78;5.95;;;19.50;95.40;;;;;;5055316;28;20123;-79
2022/09/06 02:12:03;;;;;;;9.68;6.35;;;19.50;95.50;;;;;;5072967;28;20137;-80
2022/09/06 02:14:36;;;;;;;9.50;5.93;;;19.50;95.70;;;;;;5072884;28;20052;-80
2022/09/06 02:17:04;;;;;;;9.30;5.80;;;19.40;95.80;;;;;;5038819;28;20123;-79
2022/09/06 02:19:46;;;;;;;6.95;5.47;;;19.40;95.80;;;;;;5055087;28;20715;-80
2022/09/06 02:22:16;;;;;;;8.65;5.78;;;19.40;96.00;;;;;;5072855;28;20124;-79
2022/09/06 02:24:46;;;;;;;6.57;5.95;;;19.30;96.20;;;;;;5055403;28;20044;-79
2022/09/06 02:27:13;;;;;;;7.30;6.20;;;19.30;96.40;;;;;;5038721;28;20040;-80
2022/09/06 02:29:39;;;;;;;7.18;6.47;;;19.20;96.60;;;;;;5054990;28;20032;-80
2022/09/06 02:32:21;;;;;;;11.75;6.25;;;19.20;96.90;;;;;;5055072;28;20119;-81
2022/09/06 02:34:53;;;;;;;8.38;6.65;;;19.20;97.20;;;;;;5054988;28;20329;-79
2022/09/06 02:37:19;;;;;;;6.75;5.15;;;19.20;97.30;;;;;;5072729;28;20040;-80
2022/09/06 02:39:45;;;;;;;8.32;6.50;;;19.20;97.20;;;;;;5054784;28;20454;-79
2022/09/06 02:42:13;;;;;;;7.75;6.57;;;19.10;97.20;;;;;;5054930;28;20086;-79
2022/09/06 02:44:39;;;;;;;6.75;6.13;;;19.10;97.10;;;;;;5072637;28;20044;-79
2022/09/06 02:47:05;;;;;;;14.60;6.70;;;19.10;97.10;;;;;;5054506;28;20044;-80
2022/09/06 02:49:31;;;;;;;7.65;6.38;;;19.10;97.20;;;;;;5054818;28;20084;-79
2022/09/06 02:51:56;;;;;;;8.75;6.53;;;19.10;97.50;;;;;;5054954;28;20086;-80
2022/09/06 02:54:23;;;;;;;7.80;6.45;;;19.00;97.70;;;;;;5072548;28;20124;-80
2022/09/06 02:56:48;;;;;;;9.40;6.53;;;19.00;97.80;;;;;;5072442;28;20056;-80
2022/09/06 02:59:14;;;;;;;9.95;6.25;;;18.90;97.80;;;;;;5072328;28;20044;-80
2022/09/06 03:01:40;;;;;;;7.18;6.47;;;18.90;97.80;;;;;;5072413;28;20048;-80
2022/09/06 03:04:07;;;;;;;9.10;6.55;;;19.00;97.90;;;;;;5054565;28;20055;-81
2022/09/06 03:06:33;;;;;;;10.27;6.60;;;18.90;97.90;;;;;;5054822;28;20036;-81
2022/09/06 03:08:59;;;;;;;6.85;5.85;;;18.90;97.80;;;;;;5054325;28;20553;-79
2022/09/06 03:11:26;;;;;;;6.57;5.90;;;18.90;97.80;;;;;;5072282;28;20677;-79
2022/09/06 03:13:52;;;;;;;6.18;5.55;;;18.90;97.70;;;;;;5054701;28;20448;-80
2022/09/06 03:16:18;;;;;;;7.70;5.95;;;19.00;97.70;;;;;;5055430;28;20407;-81
2022/09/06 03:18:45;;;;;;;7.20;5.90;;;19.00;97.60;;;;;;5054800;28;20341;-80
2022/09/06 03:21:12;;;;;;;7.03;5.72;;;19.00;97.70;;;;;;5072336;28;20045;-80
2022/09/06 03:23:38;;;;;;;6.75;6.13;;;19.00;97.80;;;;;;5054510;28;20451;-79
2022/09/06 03:26:05;;;;;;;8.50;6.30;;;19.00;97.80;;;;;;5054811;28;20076;-80
2022/09/06 03:28:32;;;;;;;6.35;5.63;;;18.90;97.70;;;;;;5054337;28;20037;-80
2022/09/06 03:30:57;;;;;;;7.88;6.03;;;19.00;97.60;;;;;;5072177;28;20115;-81
2022/09/06 03:33:23;;;;;;;7.28;6.30;;;18.90;97.50;;;;;;5071942;28;20131;-82
2022/09/06 03:35:57;;;;;;;9.07;6.32;;;19.00;97.50;;;;;;5054330;28;20040;-80
2022/09/06 03:38:24;;;;;;;7.60;6.65;;;18.90;97.50;;;;;;5037763;28;20044;-79
2022/09/06 03:40:51;;;;;;;7.88;6.53;;;18.90;97.70;;;;;;5072022;28;20037;-81
2022/09/06 03:43:17;;;;;;;6.78;6.18;;;18.90;97.80;;;;;;5052534;28;20163;-80
2022/09/06 03:45:45;;;;;;;6.43;5.82;;;18.80;97.80;;;;;;5037639;28;20056;-80
2022/09/06 03:48:11;;;;;;;10.15;6.43;;;18.80;97.70;;;;;;5054383;28;20094;-80
2022/09/06 03:50:37;;;;;;;9.88;7.50;;;18.90;97.80;;;;;;5071998;28;20378;-80
2022/09/06 03:53:03;;;;;;;8.73;7.82;;;18.90;98.00;;;;;;5056467;28;20551;-81
2022/09/06 03:55:29;;;;;;;8.80;7.15;;;18.90;98.50;;;;;;5041595;28;20045;-80
2022/09/06 03:57:54;;;;;;;11.48;7.85;;;18.80;99.10;;;;;;5057916;28;20046;-80
2022/09/06 04:00:20;;;;;;;8.75;6.50;;;18.80;99.50;;;;;;5058044;28;20127;-81
2022/09/06 04:02:46;;;;;;;8.80;7.97;;;18.70;99.70;;;;;;5057949;28;20123;-80
2022/09/06 04:05:12;;;;;;;9.85;7.50;;;18.70;99.90;;;;;;5041366;28;20052;-80
2022/09/06 04:07:38;;;;;;;10.40;7.75;;;18.60;99.90;;;;;;5057753;28;20072;-80
2022/09/06 04:10:05;;;;;;;10.07;7.68;;;18.60;99.90;;;;;;5075047;28;20091;-80
2022/09/06 04:12:30;;;;;;;10.65;7.85;;;18.50;99.90;;;;;;5057675;28;20044;-80
2022/09/06 04:14:56;;;;;;;11.20;8.70;;;18.50;99.90;;;;;;5057732;28;20045;-80
2022/09/06 04:17:22;;;;;;;12.57;8.70;;;18.50;99.90;;;;;;5057647;28;20400;-80
2022/09/06 04:19:48;;;;;;;11.15;8.90;;;18.50;99.90;;;;;;5075169;28;20502;-80
2022/09/06 04:22:13;;;;;;;9.77;8.73;;;18.40;99.90;;;;;;5057455;28;20036;-80
2022/09/06 04:24:39;;;;;;;10.60;9.40;;;18.30;99.90;;;;;;5057304;28;20043;-80
2022/09/06 04:27:05;;;;;;;11.18;9.55;;;18.20;99.90;;;;;;5058306;28;20040;-80
2022/09/06 04:29:31;;;;;;;10.25;9.25;;;18.20;99.90;;;;;;5057100;28;20405;-80
2022/09/06 04:31:56;;;;;;;9.90;8.57;;;18.20;99.90;;;;;;5074915;28;20044;-79
2022/09/06 04:34:22;;;;;;;9.70;8.68;;;18.10;99.90;;;;;;5057468;28;20131;-81
2022/09/06 04:36:48;;;;;;;10.60;9.50;;;18.10;99.90;;;;;;5074817;28;20446;-80
2022/09/06 04:39:14;;;;;;;10.93;9.45;;;18.10;99.90;;;;;;5057271;28;20044;-80
2022/09/06 04:41:39;;;;;;;10.38;9.40;;;18.10;99.90;;;;;;5057386;28;20040;-80
2022/09/06 04:44:05;;;;;;;10.65;9.57;;;18.10;99.90;;;;;;5057246;28;20047;-80
2022/09/06 04:46:31;;;;;;;11.35;9.93;;;18.10;99.90;;;;;;5056686;28;20052;-81
2022/09/06 04:48:57;;;;;;;12.55;10.18;;;18.00;99.90;;;;;;5071905;28;20198;-81
2022/09/06 04:51:24;;;;;;;10.95;9.85;;;18.00;99.90;;;;;;5057234;28;20124;-80
2022/09/06 04:53:50;;;;;;;12.05;10.93;;;18.00;99.90;;;;;;5040463;28;20052;-79
2022/09/06 04:56:21;;;;;;;12.50;11.27;;;18.00;99.90;;;;;;5056954;28;20040;-80
2022/09/06 04:58:48;;;;;;;13.57;11.80;;;17.90;99.90;;;;;;5075746;28;20065;-81
2022/09/06 05:01:15;;;;;;;13.15;11.10;;;17.90;99.90;;;;;;5074548;28;20153;-81
2022/09/06 05:03:41;;;;;;;13.40;11.93;;;17.90;99.90;;;;;;5056359;28;20041;-81
2022/09/06 05:06:12;;;;;;;14.00;11.93;;;17.80;99.90;;;;;;5056877;28;20055;-81
2022/09/06 05:08:39;;;;;;;11.23;10.13;;;17.80;99.90;;;;;;5074137;28;20048;-79
2022/09/06 05:11:07;;;;;;;12.60;11.27;;;17.70;99.90;;;;;;5074074;28;20519;-81
2022/09/06 05:13:33;;;;;;;13.02;11.27;;;17.70;99.90;;;;;;5056730;28;20450;-80
2022/09/06 05:16:00;;;;;;;13.02;11.82;;;17.60;99.90;;;;;;5057162;28;20087;-79
2022/09/06 05:18:26;;;;;;;12.98;11.23;;;17.60;99.90;;;;;;5056582;28;20503;-79
2022/09/06 05:20:53;;;;;;;11.88;10.70;;;17.60;99.90;;;;;;5056477;28;20036;-79
2022/09/06 05:23:20;;;;;;;11.20;10.18;;;17.50;99.90;;;;;;5073916;28;20045;-79
2022/09/06 05:25:46;;;;;;;11.85;10.65;;;17.50;99.90;;;;;;5073464;28;20473;-79
2022/09/06 05:28:12;;;;;;;12.10;10.80;;;17.50;99.90;;;;;;5056295;28;20058;-80
2022/09/06 05:30:38;;;;;;;14.02;10.32;;;17.50;99.90;;;;;;5056267;28;20052;-80
2022/09/06 05:33:04;;;;;;;11.63;10.43;;;17.50;99.90;;;;;;5056277;28;20047;-79
2022/09/06 05:35:29;;;;;;;12.63;11.35;;;17.50;99.90;;;;;;5056297;28;20041;-78
2022/09/06 05:37:55;;;;;;;12.88;10.27;;;17.60;99.90;;;;;;5056208;28;20044;-79
2022/09/06 05:40:21;;;;;;;13.02;11.82;;;17.60;99.90;;;;;;5073666;28;20044;-78
2022/09/06 05:42:47;;;;;;;14.23;12.60;;;17.50;99.90;;;;;;5056163;28;20083;-77
2022/09/06 05:45:13;;;;;;;12.48;11.38;;;17.50;99.90;;;;;;5073456;28;20045;-78
2022/09/06 05:47:38;;;;;;;13.88;12.25;;;17.60;99.90;;;;;;5073676;28;20044;-79
2022/09/06 05:50:05;;;;;;;12.20;10.95;;;17.50;99.90;;;;;;5073325;28;20040;-78
2022/09/06 05:52:33;;;;;;;13.48;12.23;;;17.60;99.90;;;;;;5073557;28;20144;-79
2022/09/06 05:55:00;;;;;;;13.52;12.23;;;17.60;99.90;;;;;;5055819;28;20507;-80
2022/09/06 05:57:26;;;;;;;14.63;11.57;;;17.70;99.90;;;;;;5055925;28;20040;-77
2022/09/06 05:59:52;;;;;;;12.70;11.38;;;17.70;99.90;;;;;;5073416;28;20382;-77
2022/09/06 06:02:19;;;;;;;13.73;12.30;;;17.70;99.90;;;;;;5072890;28;20106;-79
2022/09/06 06:04:46;;;;;;;12.20;11.00;;;17.70;99.90;;;;;;5073000;28;20040;-82
2022/09/06 06:07:11;;;;;;;14.10;12.65;;;17.70;99.90;;;;;;5055436;28;20393;-81
2022/09/06 06:09:37;;;;;;;14.32;12.85;;;17.70;99.90;;;;;;5074334;28;20041;-79
2022/09/06 06:12:03;;;;;;;13.75;12.27;;;17.70;99.90;;;;;;5073180;28;20086;-79
2022/09/06 06:14:29;;;;;;;11.77;10.70;;;17.70;99.90;;;;;;5073080;28;20048;-78
2022/09/06 06:16:55;;;;;;;12.68;11.43;;;17.80;99.90;;;;;;5072173;28;20338;-79
2022/09/06 06:19:20;;;;;;;12.25;10.98;;;17.80;99.90;;;;;;5055406;28;20040;-79
2022/09/06 06:21:46;;;;;;;15.77;12.68;;;17.80;99.90;;;;;;5072917;28;20051;-76
2022/09/06 06:24:12;;;;;;;13.48;12.07;;;17.90;99.90;;;;;;5055338;28;20429;-79
2022/09/06 06:26:38;;;;;;;13.48;12.15;;;17.90;99.90;;;;;;5072866;28;20113;-79
2022/09/06 06:29:06;;;;;;;12.10;10.80;;;17.90;99.90;;;;;;5055074;28;20044;-78
2022/09/06 06:31:33;;;;;;;12.05;10.85;;;17.90;99.90;;;;;;5055086;28;20048;-79
2022/09/06 06:34:01;;;;;;;13.30;11.98;;;17.90;99.90;;;;;;5073079;28;20464;-78
2022/09/06 06:36:30;;;;;;;12.75;11.65;;;17.80;99.90;;;;;;5064168;28;20151;-79
2022/09/06 06:38:57;;;;;;;12.98;11.60;;;17.90;99.90;;;;;;5062222;28;20080;-78
2022/09/06 06:41:25;;;;;;;14.30;12.85;;;17.80;99.90;;;;;;5071932;28;20056;-80
2022/09/06 06:43:55;;;;;;;13.38;12.07;;;17.80;99.90;;;;;;5055032;28;20524;-78
2022/09/06 06:46:24;;;;;;;13.70;12.30;;;17.80;99.90;;;;;;5038072;28;20048;-78
2022/09/06 06:48:50;;;;;;;13.57;12.18;;;17.90;99.90;;;;;;5054777;28;20048;-78
2022/09/06 06:51:19;;;;;;;13.82;12.30;;;17.90;99.90;;;;;;5072512;28;20044;-79
2022/09/06 06:53:49;;;;;;;13.82;12.45;;;17.90;99.90;;;;;;5055154;28;20056;-78
2022/09/06 06:56:35;;;;;;;15.05;13.02;;;17.90;99.90;;;;;;5072386;28;20044;-79
2022/09/06 06:59:03;;;;;;;14.35;12.93;;;18.00;99.90;;;;;;5054511;28;20357;-79
2022/09/06 07:01:31;;;;;;;15.13;13.15;;;18.00;99.90;;;;;;5052158;28;20055;-79
2022/09/06 07:03:58;;;;;;;13.95;12.55;;;18.00;99.90;;;;;;5051359;28;20045;-80
2022/09/06 07:06:24;;;;;;;14.15;12.75;;;18.10;99.90;;;;;;5074846;28;20035;-79
2022/09/06 07:08:50;;;;;;;14.32;12.85;;;18.00;99.90;;;;;;5092108;28;20047;-79
2022/09/06 07:11:17;;;;;;;14.23;12.93;;;18.10;99.90;;;;;;5074631;28;20048;-77
2022/09/06 07:13:43;;;;;;;14.07;12.57;;;18.10;99.90;;;;;;5074444;28;20040;-79
2022/09/06 07:16:13;;;;;;;14.52;12.82;;;18.10;99.90;;;;;;5092136;28;20040;-79
2022/09/06 07:18:41;;;;;;;18.63;14.52;;;18.10;99.90;;;;;;5051392;28;20508;-79
2022/09/06 07:21:25;;;;;;;15.45;13.88;;;18.20;99.90;;;;;;5072937;28;20056;-80
2022/09/06 07:23:52;;;;;;;17.23;13.88;;;18.40;99.90;;;;;;5071759;28;20487;-80
2022/09/06 07:26:25;;;;;;;15.65;13.25;;;18.50;99.90;;;;;;5061304;28;20152;-79
2022/09/06 07:28:52;;;;;;;14.45;13.05;;;18.60;99.90;;;;;;5064132;28;20051;-79
2022/09/06 07:31:18;;;;;;;15.93;14.32;;;18.80;99.90;;;;;;5058484;28;20127;-80
2022/09/06 07:33:44;;;;;;;13.95;12.60;;;18.90;99.90;;;;;;5075855;28;20123;-79
2022/09/06 07:36:10;;;;;;;14.38;12.98;;;19.10;99.90;;;;;;5058366;28;20040;-79
2022/09/06 07:38:36;;;;;;;14.57;12.90;;;19.30;99.90;;;;;;5058417;28;20446;-79
2022/09/06 07:41:05;;;;;;;14.20;12.80;;;19.50;99.90;;;;;;5058426;28;20052;-79
2022/09/06 07:43:31;;;;;;;14.52;13.23;;;19.60;99.90;;;;;;5075745;28;20047;-79
2022/09/06 07:46:12;;;;;;;13.90;12.20;;;19.60;99.90;;;;;;5053702;28;20072;-81
2022/09/06 07:48:41;;;;;;;14.63;13.07;;;19.60;99.90;;;;;;5058134;28;20430;-81
2022/09/06 07:51:17;;;;;;;14.55;13.15;;;19.70;99.90;;;;;;5075306;28;20047;-78
2022/09/06 07:53:46;;;;;;;14.70;13.40;;;19.70;99.90;;;;;;5057868;28;20094;-78
2022/09/06 07:56:12;;;;;;;15.88;13.25;;;19.80;99.90;;;;;;5075504;28;20052;-78
2022/09/06 07:58:39;;;;;;;14.30;12.88;;;19.90;99.90;;;;;;5057930;28;20048;-79
2022/09/06 08:01:31;;;;;;;14.00;12.60;;;20.10;99.90;;;;;;5075355;28;20040;-81
2022/09/06 08:04:00;;;;;;;14.07;12.63;;;20.30;99.90;;;;;;5075338;28;20033;-79
2022/09/06 08:06:28;;;;;;;14.40;12.20;;;20.50;99.90;;;;;;5075364;28;20264;-80
2022/09/06 08:08:54;;;;;;;15.38;13.02;;;20.80;99.90;;;;;;5075368;28;20108;-79
2022/09/06 08:11:21;;;;;;;13.65;12.23;;;21.00;99.90;;;;;;5075204;28;20466;-79
2022/09/06 08:13:53;;;;;;;15.82;12.07;;;21.40;99.90;;;;;;5075096;28;20041;-79
2022/09/06 08:16:20;;;;;;;14.05;12.05;;;21.60;99.90;;;;;;5057800;28;20778;-79
2022/09/06 08:18:53;;;;;;;13.52;11.77;;;21.60;99.90;;;;;;5074996;28;20438;-81
2022/09/06 08:21:19;;;;;;;14.35;12.85;;;21.60;99.90;;;;;;5075101;28;20047;-79
2022/09/06 08:23:48;;;;;;;12.45;11.23;;;21.60;99.90;;;;;;5057366;28;20036;-81
2022/09/06 08:26:15;;;;;;;14.07;12.67;;;21.80;99.90;;;;;;5039808;28;20094;-80
2022/09/06 08:28:41;;;;;;;12.88;11.77;;;22.20;99.90;;;;;;5058472;28;20060;-80
2022/09/06 08:31:13;;;;;;;12.27;10.90;;;22.80;99.90;;;;;;5057109;28;20044;-79
2022/09/06 08:33:39;;;;;;;12.57;11.38;;;23.30;99.90;;;;;;5074901;28;20044;-79
2022/09/06 08:36:06;;;;;;;11.75;10.57;;;23.50;99.90;;;;;;5074632;28;20047;-79
2022/09/06 08:38:33;;;;;;;13.20;10.75;;;23.80;99.90;;;;;;5056464;28;20053;-80
2022/09/06 08:41:10;;;;;;;11.48;10.27;;;24.30;99.90;;;;;;5057056;28;20040;-82
2022/09/06 08:43:37;;;;;;;11.23;10.13;;;24.90;99.90;;;;;;5040767;28;20048;-81
2022/09/06 08:46:05;;;;;;;10.85;9.70;;;25.40;99.90;;;;;;5056932;28;20051;-80
2022/09/06 08:48:35;;;;;;;10.82;9.82;;;25.70;99.90;;;;;;5074644;28;20055;-81
2022/09/06 08:51:21;;;;;;;11.15;9.70;;;26.00;99.90;;;;;;5056910;28;20052;-80
2022/09/06 08:53:46;;;;;;;11.02;9.90;;;26.40;99.50;;;;;;5057012;28;20045;-80
2022/09/06 08:56:31;;;;;;;10.88;9.77;;;26.90;98.50;;;;;;5056095;28;20053;-80
2022/09/06 08:59:05;;;;;;;10.50;9.50;;;27.20;96.70;;;;;;5056920;28;20123;-80
2022/09/06 09:02:05;;;;;;;13.52;10.57;;;27.30;96.40;;;;;;5040265;28;20464;-81
2022/09/06 09:04:35;;;;;;;10.93;9.95;;;27.30;95.60;;;;;;5074397;28;20044;-81
2022/09/06 09:07:14;;;;;;;11.05;10.00;;;27.30;95.80;;;;;;5056598;28;20067;-81
2022/09/06 09:09:40;;;;;;;11.25;10.27;;;27.50;95.20;;;;;;5039931;28;20533;-81
2022/09/06 09:12:10;;;;;;;11.18;10.18;;;27.70;94.80;;;;;;5074044;28;20049;-79
2022/09/06 09:14:41;;;;;;;10.93;9.93;;;28.00;94.20;;;;;;5074086;28;20092;-82
2022/09/06 09:17:28;;;;;;;10.77;9.70;;;28.20;93.30;;;;;;5056661;28;20040;-80
2022/09/06 09:19:55;;;;;;;10.52;9.43;;;28.60;92.90;;;;;;5040062;28;20097;-80
2022/09/06 09:22:23;;;;;;;11.30;9.57;;;28.90;92.70;;;;;;5074009;28;20052;-81
2022/09/06 09:24:51;;;;;;;10.68;9.25;;;29.20;91.40;;;;;;5039867;28;20456;-81
2022/09/06 09:27:26;;;;;;;10.55;9.65;;;29.40;90.70;;;;;;5073934;28;20040;-81
2022/09/06 09:29:54;;;;;;;10.45;9.48;;;29.40;89.60;;;;;;5056134;28;20040;-81
2022/09/06 09:32:37;;;;;;;10.10;9.20;;;29.30;87.70;;;;;;5039554;28;20119;-81
2022/09/06 09:35:22;;;;;;;10.40;8.63;;;29.50;88.30;;;;;;5056098;28;20044;-80
2022/09/06 09:38:00;;;;;;;29.65;13.85;;;29.60;86.70;;;;;;5056242;28;20446;-82
2022/09/06 09:40:38;;;;;;;9.00;7.70;;;29.80;86.60;;;;;;5073703;28;20072;-81
2022/09/06 09:43:09;;;;;;;8.63;7.93;;;30.00;85.90;;;;;;5056149;28;20090;-82
2022/09/06 09:45:35;;;;;;;9.50;8.60;;;30.30;85.10;;;;;;5073077;28;20045;-81
2022/09/06 09:48:25;;;;;;;10.20;9.20;;;30.50;82.30;;;;;;5055471;28;20048;-81
2022/09/06 09:50:53;;;;;;;10.63;8.75;;;30.50;81.50;;;;;;5055783;28;20044;-81
2022/09/06 09:53:21;;;;;;;9.18;8.30;;;30.50;81.00;;;;;;5055627;28;20519;-81
2022/09/06 09:55:53;;;;;;;9.02;8.07;;;30.60;80.60;;;;;;5055872;28;20045;-80
2022/09/06 09:58:35;;;;;;;9.18;8.18;;;30.80;79.90;;;;;;5055652;28;20048;-78
2022/09/06 10:01:14;;;;;;;9.85;7.35;;;31.00;79.60;;;;;;5055807;28;20033;-79
2022/09/06 10:03:40;;;;;;;12.15;7.63;;;31.30;78.80;;;;;;5073127;28;20058;-80
2022/09/06 10:06:10;;;;;;;10.40;8.45;;;31.30;76.20;;;;;;5055492;28;20412;-79
2022/09/06 10:08:41;;;;;;;9.38;8.27;;;31.20;74.50;;;;;;5049324;28;20040;-80
2022/09/06 10:11:11;;;;;;;8.70;6.65;;;31.30;76.00;;;;;;5055564;28;20119;-78
2022/09/06 10:13:37;;;;;;;7.78;7.05;;;31.60;74.20;;;;;;5073027;28;20079;-80
2022/09/06 10:16:03;;;;;;;7.85;7.10;;;31.40;72.90;;;;;;5073017;28;20091;-80
2022/09/06 10:18:33;;;;;;;5.93;5.32;;;31.50;73.00;;;;;;5055389;28;20040;-77
2022/09/06 10:21:08;;;;;;;6.78;6.07;;;31.60;73.30;;;;;;5055410;28;20095;-77
2022/09/06 10:23:53;;;;;;;5.95;5.25;;;31.80;71.90;;;;;;5073083;28;20327;-77
2022/09/06 10:26:31;;;;;;;6.72;5.43;;;32.00;71.70;;;;;;5038818;28;20131;-77
2022/09/06 10:29:10;;;;;;;9.73;4.32;;;32.20;71.00;;;;;;5072851;28;20036;-78
2022/09/06 10:31:38;;;;;;;6.57;5.90;;;32.20;71.30;;;;;;5055372;28;20047;-78
2022/09/06 10:34:13;;;;;;;6.03;4.88;;;32.00;70.50;;;;;;5054714;28;20055;-79
2022/09/06 10:36:48;;;;;;;3.85;3.45;;;32.20;70.10;;;;;;5072260;28;20048;-77
2022/09/06 10:39:41;;;;;;;5.82;4.07;;;32.00;69.90;;;;;;5072288;28;20051;-78
2022/09/06 10:42:22;;;;;;;6.10;3.58;;;31.50;68.60;;;;;;5072569;28;20392;-79
2022/09/06 10:45:11;;;;;;;7.50;3.95;;;31.40;68.60;;;;;;5072646;28;20044;-79
2022/09/06 10:48:08;;;;;;;5.55;4.32;;;31.70;69.80;;;;;;5054671;28;20052;-80
2022/09/06 10:50:51;;;;;;;4.22;3.67;;;31.90;68.90;;;;;;5038173;28;20189;-80
2022/09/06 10:53:26;;;;;;;5.53;3.88;;;32.20;67.40;;;;;;5072699;28;20143;-80
2022/09/06 10:56:21;;;;;;;4.18;3.78;;;32.20;65.70;;;;;;5054951;28;20077;-81
2022/09/06 10:58:58;;;;;;;6.05;3.90;;;32.20;65.80;;;;;;5053110;28;20131;-79
2022/09/06 11:01:29;;;;;;;5.90;3.80;;;32.10;63.90;;;;;;5037999;28;20036;-80
2022/09/06 11:04:03;;;;;;;5.68;3.60;;;31.80;64.60;;;;;;5038082;28;20106;-85
2022/09/06 11:06:34;;;;;;;3.60;3.30;;;32.00;63.70;;;;;;5038992;28;20446;-80
2022/09/06 11:09:32;;;;;;;4.32;2.33;;;32.00;63.00;;;;;;5073094;28;20055;-79
2022/09/06 11:12:05;;;;;;;4.30;3.28;;;31.90;62.20;;;;;;5005458;28;20048;-78
2022/09/06 11:14:34;;;;;;;7.00;3.58;;;31.80;62.60;;;;;;5072187;28;20571;-80
2022/09/06 11:17:12;;;;;;;2.57;2.30;;;31.80;63.30;;;;;;5072252;28;20044;-79
2022/09/06 11:19:45;;;;;;;;;;;31.70;63.30;;;;;;5055147;28;20052;-81
2022/09/06 11:22:44;;;;;;;7.10;3.38;;;31.20;63.20;;;;;;5054766;28;20553;-80
2022/09/06 11:25:13;;;;;;;3.88;2.90;;;30.80;64.40;;;;;;5050828;28;20052;-78
2022/09/06 11:27:41;;;;;;;;;;;30.70;63.30;;;;;;5054869;28;20146;-80
2022/09/06 11:30:14;;;;;;;6.38;3.30;;;30.60;64.00;;;;;;5054190;28;19916;-78
2022/09/06 11:32:47;;;;;;;5.53;3.55;;;30.50;64.90;;;;;;5054380;28;20350;-80
2022/09/06 11:35:26;;;;;;;5.35;4.38;;;30.30;64.10;;;;;;5054635;28;20545;-80
2022/09/06 11:38:12;;;;;;;5.00;3.20;;;29.90;64.00;;;;;;5038377;28;20123;-81
2022/09/06 11:40:41;;;;;;;4.88;3.78;;;29.50;63.80;;;;;;5071811;28;20144;-78
2022/09/06 11:43:11;;;;;;;5.38;4.68;;;29.00;65.10;;;;;;5054437;28;20052;-80
2022/09/06 11:45:51;;;;;;;4.75;4.07;;;29.00;66.40;;;;;;5035933;28;20473;-80
2022/09/06 11:48:27;;;;;;;5.15;4.53;;;28.80;67.70;;;;;;5053990;28;20214;-80
2022/09/06 11:50:58;;;;;;;8.10;4.97;;;28.70;68.60;;;;;;5054253;28;20079;-78
2022/09/06 11:53:29;;;;;;;4.90;3.97;;;28.60;68.60;;;;;;5071772;28;20123;-79
2022/09/06 11:55:58;;;;;;;4.47;3.55;;;28.50;69.40;;;;;;5071743;28;20347;-78
2022/09/06 11:58:55;;;;;;;6.80;4.00;;;28.50;69.90;;;;;;5054245;28;20072;-79
2022/09/06 12:01:20;;;;;;;4.50;4.10;;;28.40;70.00;;;;;;5065940;28;20052;-79
2022/09/06 12:03:46;;;;;;;4.70;4.20;;;28.40;70.00;;;;;;5053957;28;20438;-79
2022/09/06 12:06:15;;;;;;;6.57;3.92;;;28.40;69.90;;;;;;5054111;28;20058;-79
2022/09/06 12:08:42;;;;;;;6.50;3.58;;;28.40;69.70;;;;;;5071735;28;20040;-79
2022/09/06 12:11:24;;;;;;;4.95;2.65;;;28.40;69.80;;;;;;5071190;28;20055;-78
2022/09/06 12:13:59;;;;;;;5.25;2.63;;;28.70;69.30;;;;;;5037941;28;20044;-79
2022/09/06 12:16:56;;;;;;;4.22;1.80;;;28.90;67.90;;;;;;5057077;28;20044;-78
2022/09/06 12:19:54;;;;;;;3.03;2.10;;;28.90;67.30;;;;;;5057459;28;20040;-79
2022/09/06 12:22:29;;;;;;;2.92;2.00;;;29.00;66.80;;;;;;5057448;28;20441;-79
2022/09/06 12:25:00;;;;;;;2.28;1.73;;;29.00;66.20;;;;;;5075099;28;20044;-77
2022/09/06 12:27:37;;;;;;;2.33;1.50;;;28.90;65.30;;;;;;5057517;28;20127;-78
2022/09/06 12:30:10;;;;;;;4.32;2.30;;;28.80;65.70;;;;;;5057033;28;20056;-77
2022/09/06 12:32:40;;;;;;;3.63;2.10;;;28.60;66.20;;;;;;5057214;28;20056;-79
2022/09/06 12:35:18;;;;;;;3.47;2.08;;;28.30;67.00;;;;;;5074810;28;20374;-80
2022/09/06 12:37:56;;;;;;;3.75;2.10;;;28.30;68.30;;;;;;5074921;28;20059;-82
2022/09/06 12:40:24;;;;;;;4.03;2.22;;;28.30;69.00;;;;;;5084270;28;20448;-80
2022/09/06 12:42:51;;;;;;;5.28;2.30;;;28.50;70.50;;;;;;5077328;28;20039;-79
2022/09/06 12:45:20;;;;;;;5.90;2.13;;;28.80;71.10;;;;;;5077247;28;20042;-82
2022/09/06 12:47:46;;;;;;;3.80;2.40;;;28.90;68.90;;;;;;5094476;28;20067;-80
2022/09/06 12:50:19;;;;;;;2.72;2.08;;;28.80;68.40;;;;;;5076831;28;20486;-80
2022/09/06 12:52:48;;;;;;;2.90;1.58;;;28.60;69.00;;;;;;5076937;28;20048;-80
2022/09/06 12:55:18;;;;;;;3.35;2.20;;;28.70;69.00;;;;;;5077608;28;20044;-81
2022/09/06 12:57:50;;;;;;;3.33;1.50;;;28.60;68.10;;;;;;5077742;28;20101;-80
2022/09/06 13:00:17;;;;;;;4.28;1.90;;;28.40;68.10;;;;;;5077082;28;20354;-80